Time;durP1;ratioP1;P1;durP2;ratioP2;P2;SDS_P1;SDS_P2;PMS_P1;PMS_P2;Temp;Humidity;BMP_temperature;BMP_pressure;BME280_temperature;BME280_humidity;BME280_pressure;Samples;Min_cycle;Max_cycle;Signal;HPM_P1;HPM_P2
2023/03/27 00:00:09;;;;;;;1.73;0.35;;;10.90;99.90;;;;;;4919357;28;20841;-81
2023/03/27 00:02:37;;;;;;;4.07;0.90;;;10.90;99.90;;;;;;4921255;28;20708;-81
2023/03/27 00:05:05;;;;;;;1.70;0.80;;;10.90;99.90;;;;;;4893300;28;20051;-81
2023/03/27 00:07:34;;;;;;;5.68;0.77;;;11.10;99.90;;;;;;4907104;28;20055;-81
2023/03/27 00:10:02;;;;;;;3.80;0.55;;;10.70;99.90;;;;;;4904252;28;20050;-81
2023/03/27 00:12:30;;;;;;;3.47;1.80;;;10.90;99.90;;;;;;4922081;28;20055;-81
2023/03/27 00:14:57;;;;;;;2.38;0.93;;;11.30;99.90;;;;;;4896538;28;20721;-80
2023/03/27 00:17:24;;;;;;;2.70;0.60;;;10.80;99.90;;;;;;4904839;28;20047;-81
2023/03/27 00:19:52;;;;;;;1.45;0.40;;;10.80;99.90;;;;;;4931455;28;20125;-81
2023/03/27 00:22:22;;;;;;;1.73;0.40;;;10.70;99.90;;;;;;4907018;28;20941;-81
2023/03/27 00:24:49;;;;;;;1.30;0.70;;;10.80;99.90;;;;;;4924378;28;20214;-81
2023/03/27 00:27:20;;;;;;;1.40;0.40;;;11.00;99.90;;;;;;4912511;28;20062;-81
2023/03/27 00:29:48;;;;;;;3.15;0.40;;;10.80;99.90;;;;;;4901243;28;20077;-81
2023/03/27 00:32:18;;;;;;;2.85;0.40;;;10.70;99.90;;;;;;4912067;28;20437;-81
2023/03/27 00:34:45;;;;;;;2.78;0.80;;;10.60;99.90;;;;;;4911534;28;21427;-81
2023/03/27 00:37:12;;;;;;;1.23;0.30;;;10.60;99.90;;;;;;4915535;28;20057;-81
2023/03/27 00:39:41;;;;;;;2.20;0.43;;;10.70;99.90;;;;;;4932257;28;20417;-81
2023/03/27 00:42:13;;;;;;;3.72;0.60;;;10.70;99.90;;;;;;4928620;28;20059;-81
2023/03/27 00:44:41;;;;;;;2.40;0.40;;;10.60;99.90;;;;;;4903821;28;20054;-81
2023/03/27 00:47:11;;;;;;;2.92;0.43;;;10.70;99.90;;;;;;4936445;28;20039;-81
2023/03/27 00:49:39;;;;;;;1.48;0.60;;;10.60;99.90;;;;;;4928256;28;20769;-81
2023/03/27 00:52:07;;;;;;;0.88;0.45;;;10.60;99.90;;;;;;4909845;28;20054;-81
2023/03/27 00:54:40;;;;;;;3.78;0.60;;;10.60;99.90;;;;;;4920104;28;20043;-81
2023/03/27 00:57:11;;;;;;;3.08;0.52;;;10.60;99.90;;;;;;4932756;28;20057;-81
2023/03/27 00:59:40;;;;;;;2.58;0.60;;;9.80;99.90;;;;;;4910071;28;20055;-81
2023/03/27 01:02:08;;;;;;;4.93;0.93;;;10.60;99.90;;;;;;4916774;28;20061;-81
2023/03/27 01:04:37;;;;;;;3.38;0.98;;;10.60;99.90;;;;;;4912669;28;20570;-81
2023/03/27 01:07:10;;;;;;;2.42;0.55;;;10.60;99.90;;;;;;4906037;28;20082;-81
2023/03/27 01:09:38;;;;;;;3.17;0.60;;;10.60;99.90;;;;;;4915057;28;20656;-81
2023/03/27 01:12:24;;;;;;;2.67;0.88;;;10.50;99.90;;;;;;4910803;28;20062;-81
2023/03/27 01:15:09;;;;;;;3.90;0.77;;;10.50;99.90;;;;;;4940472;28;20130;-81
2023/03/27 01:18:05;;;;;;;4.38;1.40;;;10.50;99.90;;;;;;4936168;28;20098;-82
2023/03/27 01:21:02;;;;;;;4.35;0.75;;;10.40;99.90;;;;;;4934041;28;20095;-82
2023/03/27 01:23:42;;;;;;;1.98;0.75;;;10.50;99.90;;;;;;4914270;28;20051;-81
2023/03/27 01:26:47;;;;;;;1.40;0.50;;;10.50;99.90;;;;;;4919069;28;20047;-81
2023/03/27 01:29:25;;;;;;;3.22;0.77;;;10.50;99.90;;;;;;4929472;28;20105;-81
2023/03/27 01:32:34;;;;;;;2.25;0.77;;;10.50;99.90;;;;;;4902330;28;20098;-81
2023/03/27 01:35:42;;;;;;;2.92;1.10;;;10.50;99.90;;;;;;4930041;28;20124;-81
2023/03/27 01:38:24;;;;;;;2.97;0.95;;;10.40;99.90;;;;;;4897260;28;22274;-81
2023/03/27 01:41:10;;;;;;;2.60;1.27;;;11.20;99.90;;;;;;4906534;28;20435;-81
2023/03/27 01:43:56;;;;;;;2.42;1.23;;;10.40;99.90;;;;;;4903255;28;20182;-81
2023/03/27 01:46:37;;;;;;;2.90;1.20;;;10.40;99.90;;;;;;4914310;28;20066;-81
2023/03/27 01:49:15;;;;;;;4.25;1.95;;;10.40;99.90;;;;;;4908708;28;20178;-81
2023/03/27 01:51:48;;;;;;;2.95;1.80;;;10.40;99.90;;;;;;4907171;28;20059;-81
2023/03/27 01:54:22;;;;;;;3.40;1.70;;;10.40;99.90;;;;;;4936102;28;20061;-81
2023/03/27 01:57:01;;;;;;;5.07;2.00;;;10.40;99.90;;;;;;4907353;28;20058;-81
2023/03/27 01:59:32;;;;;;;3.20;1.65;;;10.40;99.90;;;;;;4913407;28;20050;-81
2023/03/27 02:02:07;;;;;;;3.95;1.70;;;10.30;99.90;;;;;;4913462;28;20090;-81
2023/03/27 02:04:53;;;;;;;3.33;2.03;;;10.40;99.90;;;;;;4923459;28;20050;-81
2023/03/27 02:07:30;;;;;;;4.85;2.83;;;10.40;99.90;;;;;;4909639;28;20070;-81
2023/03/27 02:10:02;;;;;;;5.10;2.40;;;10.40;99.90;;;;;;4921038;28;20779;-81
2023/03/27 02:12:37;;;;;;;4.63;2.67;;;10.40;99.90;;;;;;4912559;28;20498;-81
2023/03/27 02:15:16;;;;;;;6.10;3.47;;;10.40;99.90;;;;;;4928217;28;20043;-81
2023/03/27 02:18:06;;;;;;;6.40;3.50;;;10.40;99.90;;;;;;4909765;28;20047;-81
2023/03/27 02:20:36;;;;;;;6.05;2.90;;;10.30;99.90;;;;;;4904343;28;20427;-81
2023/03/27 02:23:05;;;;;;;5.38;3.25;;;10.30;99.90;;;;;;4919756;28;21020;-81
2023/03/27 02:25:41;;;;;;;6.32;3.38;;;10.30;99.90;;;;;;4920327;28;20125;-81
2023/03/27 02:28:28;;;;;;;9.25;4.60;;;10.20;99.90;;;;;;4907610;28;20055;-81
2023/03/27 02:30:57;;;;;;;5.72;3.20;;;9.90;99.90;;;;;;4920288;28;20101;-81
2023/03/27 02:34:13;;;;;;;5.60;3.05;;;9.90;99.90;;;;;;4911458;28;20140;-81
2023/03/27 02:36:52;;;;;;;4.68;2.80;;;10.30;99.90;;;;;;4912788;28;20055;-81
2023/03/27 02:39:35;;;;;;;6.15;2.63;;;10.00;99.90;;;;;;4901254;28;20062;-81
2023/03/27 02:42:07;;;;;;;4.82;3.40;;;10.10;99.90;;;;;;4927171;28;22706;-81
2023/03/27 02:44:51;;;;;;;4.45;2.97;;;10.10;99.90;;;;;;4900610;28;20055;-81
2023/03/27 02:47:46;;;;;;;;;;;10.00;99.90;;;;;;4932773;28;20134;-81
2023/03/27 02:50:29;;;;;;;5.20;3.08;;;9.90;99.90;;;;;;4891661;28;19930;-81
2023/03/27 02:53:05;;;;;;;6.22;2.90;;;9.80;99.90;;;;;;4920037;28;20047;-81
2023/03/27 02:55:37;;;;;;;5.70;3.10;;;9.90;99.90;;;;;;4910876;28;20186;-81
2023/03/27 02:58:15;;;;;;;6.68;3.47;;;9.80;99.90;;;;;;4915743;28;20055;-81
2023/03/27 03:01:12;;;;;;;4.75;2.78;;;9.80;99.90;;;;;;4913639;28;20467;-81
2023/03/27 03:04:06;;;;;;;7.00;3.40;;;9.80;99.90;;;;;;4911420;28;22428;-82
2023/03/27 03:06:46;;;;;;;6.35;3.20;;;9.70;99.90;;;;;;4924055;28;20422;-81
2023/03/27 03:09:14;;;;;;;7.88;3.30;;;9.80;99.90;;;;;;4900482;28;20050;-81
2023/03/27 03:11:53;;;;;;;5.38;3.20;;;9.70;99.90;;;;;;4908036;28;20062;-81
2023/03/27 03:14:30;;;;;;;7.90;3.55;;;9.70;99.90;;;;;;4932164;28;20035;-81
2023/03/27 03:16:57;;;;;;;9.77;4.03;;;9.70;99.90;;;;;;4925191;28;20047;-81
2023/03/27 03:19:25;;;;;;;7.93;3.55;;;9.70;99.90;;;;;;4934560;28;20074;-81
2023/03/27 03:21:52;;;;;;;6.68;4.03;;;9.70;99.90;;;;;;4908501;28;20147;-81
2023/03/27 03:24:20;;;;;;;7.78;3.90;;;9.60;99.90;;;;;;4904584;28;20062;-81
2023/03/27 03:26:49;;;;;;;7.35;4.07;;;9.70;99.90;;;;;;4907800;28;20301;-81
2023/03/27 03:29:18;;;;;;;8.90;4.82;;;9.60;99.90;;;;;;4920662;28;20054;-81
2023/03/27 03:32:06;;;;;;;9.30;5.38;;;9.70;99.90;;;;;;4915136;28;20133;-81
2023/03/27 03:34:34;;;;;;;11.75;5.38;;;9.70;99.90;;;;;;4926131;28;20047;-81
2023/03/27 03:37:01;;;;;;;13.60;6.00;;;9.60;99.90;;;;;;4913501;28;20368;-81
2023/03/27 03:39:30;;;;;;;14.00;6.55;;;9.50;99.90;;;;;;4936754;28;20081;-81
2023/03/27 03:41:57;;;;;;;12.52;6.70;;;9.50;99.90;;;;;;4932545;28;20051;-81
2023/03/27 03:44:24;;;;;;;13.52;6.70;;;9.40;99.90;;;;;;4925846;28;20061;-81
2023/03/27 03:46:53;;;;;;;11.07;6.07;;;9.40;99.90;;;;;;4934165;28;20054;-81
2023/03/27 03:49:20;;;;;;;13.02;6.55;;;9.40;99.90;;;;;;4941479;28;20047;-81
2023/03/27 03:51:48;;;;;;;13.73;6.57;;;9.50;99.90;;;;;;4923864;28;20411;-81
2023/03/27 03:54:31;;;;;;;15.05;7.72;;;9.60;99.90;;;;;;4923646;28;20051;-82
2023/03/27 03:56:58;;;;;;;15.02;7.45;;;9.70;99.90;;;;;;4910708;28;20073;-81
2023/03/27 03:59:26;;;;;;;15.00;6.97;;;9.60;99.90;;;;;;4911929;28;20142;-81
2023/03/27 04:02:28;;;;;;;10.98;5.68;;;9.70;99.90;;;;;;4914149;28;20086;-81
2023/03/27 04:05:05;;;;;;;12.25;5.47;;;9.70;99.90;;;;;;4915606;28;20082;-81
2023/03/27 04:07:35;;;;;;;11.88;5.45;;;9.60;99.90;;;;;;4909366;28;20161;-82
2023/03/27 04:10:32;;;;;;;14.73;5.82;;;9.60;99.90;;;;;;4879537;28;20056;-82
2023/03/27 04:13:04;;;;;;;15.75;5.20;;;9.60;99.90;;;;;;4920654;28;20602;-81
2023/03/27 04:15:36;;;;;;;11.40;5.95;;;9.70;99.90;;;;;;4915911;28;20051;-81
2023/03/27 04:18:10;;;;;;;10.23;5.32;;;9.70;99.90;;;;;;4914752;28;20731;-81
2023/03/27 04:20:38;;;;;;;9.20;5.22;;;9.70;99.90;;;;;;4913571;28;20059;-81
2023/03/27 04:23:08;;;;;;;12.57;5.82;;;9.80;99.90;;;;;;4911804;28;20059;-81
2023/03/27 04:25:38;;;;;;;10.30;5.40;;;9.80;99.90;;;;;;4898276;28;20059;-81
2023/03/27 04:28:09;;;;;;;10.35;4.70;;;9.60;99.90;;;;;;4933558;28;20051;-81
2023/03/27 04:30:43;;;;;;;9.57;4.43;;;9.70;99.90;;;;;;4928045;28;20049;-81
2023/03/27 04:33:51;;;;;;;10.23;5.65;;;9.70;99.90;;;;;;4852723;29;20200;-81
2023/03/27 04:36:56;;;;;;;13.93;6.72;;;9.70;99.90;;;;;;4850465;29;20052;-81
2023/03/27 04:39:25;;;;;;;12.32;6.68;;;9.70;99.90;;;;;;4898475;28;20058;-81
2023/03/27 04:41:52;;;;;;;12.85;6.15;;;9.70;99.90;;;;;;4912775;28;20059;-82
2023/03/27 04:44:20;;;;;;;12.77;6.00;;;9.60;99.90;;;;;;4929449;28;20070;-81
2023/03/27 04:46:50;;;;;;;10.43;5.60;;;9.60;99.90;;;;;;4923732;28;20197;-81
2023/03/27 04:49:19;;;;;;;11.40;5.50;;;9.60;99.90;;;;;;4910465;28;20043;-81
2023/03/27 04:51:57;;;;;;;10.85;4.72;;;9.50;99.90;;;;;;4919134;28;20058;-81
2023/03/27 04:54:30;;;;;;;10.65;5.07;;;9.50;99.90;;;;;;4926092;28;20083;-81
2023/03/27 04:57:00;;;;;;;11.32;4.60;;;9.40;99.90;;;;;;4915252;28;20051;-81
2023/03/27 04:59:32;;;;;;;11.27;4.38;;;9.40;99.90;;;;;;4918258;28;20378;-81
2023/03/27 05:02:18;;;;;;;11.77;4.75;;;9.30;99.90;;;;;;4947525;28;22296;-81
2023/03/27 05:05:01;;;;;;;11.55;4.13;;;9.30;99.90;;;;;;4896771;28;20062;-81
2023/03/27 05:07:31;;;;;;;7.53;3.17;;;9.30;99.90;;;;;;4906457;28;20157;-80
2023/03/27 05:10:00;;;;;;;5.35;3.05;;;9.30;99.90;;;;;;4910626;28;20047;-81
2023/03/27 05:12:28;;;;;;;6.18;3.15;;;9.30;99.90;;;;;;4941147;28;20074;-81
2023/03/27 05:15:02;;;;;;;6.03;2.75;;;9.30;99.90;;;;;;4919308;28;20128;-80
2023/03/27 05:17:42;;;;;;;6.13;2.38;;;9.30;99.90;;;;;;4941039;28;20089;-80
2023/03/27 05:20:15;;;;;;;4.57;2.17;;;9.30;99.90;;;;;;4928970;28;20157;-80
2023/03/27 05:22:43;;;;;;;5.75;2.17;;;9.40;99.90;;;;;;4916634;28;20166;-81
2023/03/27 05:25:41;;;;;;;5.15;1.92;;;9.30;99.90;;;;;;4920988;28;20105;-81
2023/03/27 05:28:14;;;;;;;4.32;1.35;;;9.30;99.90;;;;;;4917295;28;20508;-80
2023/03/27 05:30:45;;;;;;;3.80;1.42;;;9.30;99.90;;;;;;4923410;28;20045;-80
2023/03/27 05:33:19;;;;;;;2.65;1.17;;;9.30;99.90;;;;;;4922548;28;20062;-82
2023/03/27 05:35:49;;;;;;;3.67;0.88;;;9.30;99.90;;;;;;4928836;28;20039;-80
2023/03/27 05:38:16;;;;;;;2.60;1.60;;;9.20;99.90;;;;;;4897725;28;22282;-80
2023/03/27 05:41:02;;;;;;;3.00;1.15;;;9.30;99.90;;;;;;4930888;28;20059;-80
2023/03/27 05:43:33;;;;;;;4.03;1.92;;;9.30;99.90;;;;;;4927596;28;20054;-81
2023/03/27 05:46:01;;;;;;;5.43;2.00;;;9.30;99.90;;;;;;4902273;28;20065;-81
2023/03/27 05:48:29;;;;;;;4.43;1.70;;;9.30;99.90;;;;;;4900370;28;20063;-81
2023/03/27 05:51:00;;;;;;;6.15;2.50;;;9.40;99.90;;;;;;4918954;28;20085;-81
2023/03/27 05:53:27;;;;;;;3.55;1.75;;;9.40;99.90;;;;;;4920315;28;20050;-81
2023/03/27 05:56:18;;;;;;;4.80;1.88;;;9.40;99.90;;;;;;4919644;28;20108;-81
2023/03/27 05:59:04;;;;;;;4.05;1.52;;;9.50;99.90;;;;;;4915599;28;20084;-81
2023/03/27 06:01:36;;;;;;;3.55;1.77;;;9.50;99.90;;;;;;4910216;28;20050;-81
2023/03/27 06:04:04;;;;;;;6.20;2.10;;;9.40;99.90;;;;;;4924385;28;20175;-80
2023/03/27 06:06:50;;;;;;;5.22;1.60;;;9.40;99.90;;;;;;4926413;28;20057;-81
2023/03/27 06:09:17;;;;;;;5.05;1.70;;;9.40;99.90;;;;;;4924836;28;22269;-80
2023/03/27 06:12:05;;;;;;;5.40;1.73;;;9.50;99.90;;;;;;4927234;28;20074;-80
2023/03/27 06:14:36;;;;;;;4.97;1.67;;;9.40;99.90;;;;;;4929267;28;20050;-80
2023/03/27 06:17:20;;;;;;;5.00;2.10;;;9.40;99.90;;;;;;4926216;28;20047;-80
2023/03/27 06:20:09;;;;;;;4.93;2.10;;;9.40;99.90;;;;;;4916863;28;20146;-80
2023/03/27 06:22:48;;;;;;;4.00;2.00;;;9.30;99.90;;;;;;4927912;28;20149;-80
2023/03/27 06:25:21;;;;;;;4.68;2.00;;;9.30;99.90;;;;;;4899956;28;20062;-80
2023/03/27 06:27:50;;;;;;;5.03;1.83;;;9.40;99.90;;;;;;4912560;28;20142;-81
2023/03/27 06:30:21;;;;;;;4.95;2.35;;;9.30;99.90;;;;;;4903959;28;20042;-81
2023/03/27 06:33:09;;;;;;;7.40;2.20;;;9.20;99.90;;;;;;4929264;28;20047;-81
2023/03/27 06:35:59;;;;;;;7.05;3.50;;;9.10;99.90;;;;;;4924789;28;20225;-81
2023/03/27 06:38:33;;;;;;;5.40;2.05;;;9.20;99.90;;;;;;4911926;28;20051;-80
2023/03/27 06:41:00;;;;;;;6.38;2.35;;;9.30;99.90;;;;;;4912041;28;20090;-81
2023/03/27 06:43:54;;;;;;;3.80;1.75;;;9.30;99.90;;;;;;4910708;28;20066;-81
2023/03/27 06:46:33;;;;;;;3.70;1.80;;;9.30;99.90;;;;;;4905997;28;20549;-81
2023/03/27 06:49:30;;;;;;;5.10;2.03;;;9.30;99.90;;;;;;4910741;28;20773;-80
2023/03/27 06:52:02;;;;;;;;;;;9.10;99.90;;;;;;4943235;28;20043;-81
2023/03/27 06:54:30;;;;;;;15.13;7.63;;;9.20;99.90;;;;;;4914133;28;19937;-80
2023/03/27 06:57:00;;;;;;;2.90;1.48;;;9.10;99.90;;;;;;4892266;28;20136;-81
2023/03/27 06:59:36;;;;;;;3.97;1.48;;;9.10;99.90;;;;;;4930276;28;20120;-81
2023/03/27 07:02:05;;;;;;;3.28;1.30;;;9.10;99.90;;;;;;4920208;28;20051;-81
2023/03/27 07:04:52;;;;;;;3.67;1.50;;;9.00;99.90;;;;;;4927227;28;20545;-81
2023/03/27 07:07:37;;;;;;;4.40;1.67;;;8.50;99.90;;;;;;4936278;28;20050;-81
2023/03/27 07:10:09;;;;;;;6.65;4.10;;;9.00;99.90;;;;;;4914955;28;20063;-80
2023/03/27 07:12:39;;;;;;;3.38;2.05;;;9.10;99.90;;;;;;4921561;28;20047;-81
2023/03/27 07:15:07;;;;;;;7.38;4.22;;;9.00;99.90;;;;;;4936709;28;20047;-81
2023/03/27 07:17:35;;;;;;;9.85;6.43;;;9.00;99.90;;;;;;4925835;28;22152;-81
2023/03/27 07:20:17;;;;;;;7.60;4.90;;;9.20;99.90;;;;;;4912548;28;20062;-81
2023/03/27 07:22:44;;;;;;;16.77;7.95;;;9.30;99.90;;;;;;4919842;28;20065;-81
2023/03/27 07:25:25;;;;;;;8.45;4.13;;;9.20;99.90;;;;;;4928198;28;20050;-81
2023/03/27 07:27:59;;;;;;;14.05;7.80;;;9.20;99.90;;;;;;4923050;28;20054;-81
2023/03/27 07:30:27;;;;;;;5.57;2.38;;;9.30;99.90;;;;;;4936285;28;20055;-81
2023/03/27 07:32:57;;;;;;;7.82;4.68;;;9.20;99.90;;;;;;4934890;28;20165;-81
2023/03/27 07:35:24;;;;;;;7.03;4.40;;;9.20;99.90;;;;;;4896377;28;20130;-81
2023/03/27 07:38:11;;;;;;;5.60;3.08;;;9.30;99.90;;;;;;4928016;28;20078;-81
2023/03/27 07:41:05;;;;;;;7.63;3.70;;;9.30;99.90;;;;;;4929925;28;20066;-81
2023/03/27 07:43:50;;;;;;;10.80;7.13;;;9.30;99.90;;;;;;4939733;28;21271;-81
2023/03/27 07:46:24;;;;;;;6.47;3.75;;;9.30;99.90;;;;;;4905142;28;22362;-80
2023/03/27 07:48:54;;;;;;;7.22;4.03;;;9.20;99.90;;;;;;4921112;28;20050;-80
2023/03/27 07:51:24;;;;;;;5.68;3.30;;;9.20;99.90;;;;;;4917145;28;20053;-81
2023/03/27 07:53:57;;;;;;;6.25;3.05;;;9.20;99.90;;;;;;4930442;28;20065;-80
2023/03/27 07:56:45;;;;;;;3.78;2.30;;;9.20;99.90;;;;;;4898386;29;20496;-80
2023/03/27 07:59:38;;;;;;;5.30;2.65;;;9.20;99.90;;;;;;4899306;29;20473;-81
2023/03/27 08:02:13;;;;;;;5.38;3.20;;;8.60;99.90;;;;;;4873735;29;20047;-80
2023/03/27 08:04:40;;;;;;;4.18;2.08;;;9.10;99.90;;;;;;4899403;29;20735;-80
2023/03/27 08:07:10;;;;;;;5.10;2.95;;;9.00;99.90;;;;;;4890418;29;20056;-80
2023/03/27 08:09:40;;;;;;;3.90;2.42;;;9.10;99.90;;;;;;4887247;29;20048;-80
2023/03/27 08:12:07;;;;;;;4.28;1.80;;;9.00;99.90;;;;;;4883423;29;20040;-81
2023/03/27 08:14:40;;;;;;;4.45;1.75;;;9.00;99.90;;;;;;4883977;29;20136;-81
2023/03/27 08:17:34;;;;;;;4.45;1.63;;;9.00;99.90;;;;;;4881149;29;20059;-81
2023/03/27 08:20:07;;;;;;;2.85;1.00;;;9.00;99.90;;;;;;4894629;29;20553;-80
2023/03/27 08:22:44;;;;;;;2.83;1.55;;;8.70;99.90;;;;;;4873326;29;20059;-80
2023/03/27 08:25:33;;;;;;;3.58;1.90;;;8.70;99.90;;;;;;4887450;29;20051;-80
2023/03/27 08:28:05;;;;;;;3.75;2.13;;;8.80;99.90;;;;;;4897446;28;20521;-80
2023/03/27 08:30:33;;;;;;;6.00;3.20;;;8.80;99.90;;;;;;4916674;28;20079;-81
2023/03/27 08:33:02;;;;;;;69.65;33.47;;;8.90;99.90;;;;;;4906259;28;20078;-81
2023/03/27 08:35:31;;;;;;;6.55;3.53;;;8.90;99.90;;;;;;4908606;28;20129;-81
2023/03/27 08:37:59;;;;;;;11.05;6.82;;;8.90;99.90;;;;;;4912944;28;20140;-82
2023/03/27 08:40:52;;;;;;;33.78;20.77;;;8.90;99.90;;;;;;4908776;28;22387;-81
2023/03/27 08:43:37;;;;;;;19.08;10.95;;;8.90;99.90;;;;;;4906457;28;20066;-81
2023/03/27 08:46:15;;;;;;;11.27;7.15;;;8.90;99.90;;;;;;4912589;28;20832;-81
2023/03/27 08:49:16;;;;;;;8.77;5.70;;;8.90;99.90;;;;;;4920247;28;20094;-80
2023/03/27 08:52:25;;;;;;;9.93;6.78;;;8.80;99.90;;;;;;4895806;28;20059;-81
2023/03/27 08:54:59;;;;;;;6.82;4.28;;;8.70;99.90;;;;;;4909530;28;20794;-80
2023/03/27 08:57:35;;;;;;;7.60;4.28;;;8.70;99.90;;;;;;4916273;28;20057;-80
2023/03/27 09:00:22;;;;;;;7.72;5.15;;;8.60;99.90;;;;;;4929560;28;20462;-81
2023/03/27 09:03:06;;;;;;;6.45;4.63;;;8.70;99.90;;;;;;4919306;28;20049;-81
2023/03/27 09:05:43;;;;;;;6.00;3.50;;;8.60;99.90;;;;;;4888211;28;20585;-81
2023/03/27 09:08:29;;;;;;;5.75;4.90;;;8.60;99.90;;;;;;4919138;28;20054;-80
2023/03/27 09:11:28;;;;;;;7.15;4.03;;;8.60;99.90;;;;;;4917992;28;20590;-80
2023/03/27 09:14:07;;;;;;;16.45;11.35;;;8.60;99.90;;;;;;4897751;28;20105;-80
2023/03/27 09:16:48;;;;;;;6.07;3.83;;;8.70;99.90;;;;;;4912028;28;20061;-80
2023/03/27 09:19:53;;;;;;;12.80;8.90;;;8.60;99.90;;;;;;4896632;28;20514;-80
2023/03/27 09:22:30;;;;;;;12.25;7.15;;;8.60;99.90;;;;;;4927597;28;20535;-79
2023/03/27 09:25:36;;;;;;;17.33;9.85;;;8.60;99.90;;;;;;4906620;28;20050;-81
2023/03/27 09:28:29;;;;;;;6.30;2.70;;;8.60;99.90;;;;;;4933651;28;20203;-81
2023/03/27 09:31:23;;;;;;;9.15;3.70;;;8.60;99.90;;;;;;4897379;28;20055;-79
2023/03/27 09:33:51;;;;;;;6.13;3.10;;;8.60;99.90;;;;;;4917632;28;22295;-79
2023/03/27 09:36:20;;;;;;;5.38;2.90;;;8.60;99.90;;;;;;4915273;28;20490;-79
2023/03/27 09:38:51;;;;;;;6.72;3.38;;;8.70;99.90;;;;;;4906753;28;20101;-80
2023/03/27 09:41:27;;;;;;;5.75;3.20;;;8.70;99.90;;;;;;4916922;28;20477;-80
2023/03/27 09:44:09;;;;;;;7.63;4.57;;;8.70;99.90;;;;;;4886351;28;20055;-81
2023/03/27 09:46:44;;;;;;;5.53;3.60;;;8.80;99.90;;;;;;4905062;28;20043;-80
2023/03/27 09:49:17;;;;;;;5.65;3.65;;;8.70;99.90;;;;;;4879252;28;20711;-80
2023/03/27 09:51:53;;;;;;;5.88;2.78;;;8.70;99.90;;;;;;4905843;28;20052;-80
2023/03/27 09:54:52;;;;;;;6.28;3.08;;;8.60;99.90;;;;;;4884464;28;20085;-81
2023/03/27 09:57:32;;;;;;;7.60;3.15;;;8.70;99.90;;;;;;4908347;28;20054;-80
2023/03/27 10:00:24;;;;;;;5.18;3.08;;;8.60;99.90;;;;;;4895750;28;20127;-80
2023/03/27 10:03:19;;;;;;;6.20;3.13;;;8.60;99.90;;;;;;4879244;28;20523;-80
2023/03/27 10:06:10;;;;;;;4.10;1.85;;;8.60;99.90;;;;;;4858180;29;20056;-80
2023/03/27 10:08:54;;;;;;;3.00;0.80;;;8.50;99.90;;;;;;4879727;29;20467;-81
2023/03/27 10:11:31;;;;;;;2.40;0.88;;;8.40;99.90;;;;;;4872788;29;20052;-81
2023/03/27 10:14:15;;;;;;;1.75;0.80;;;8.30;99.90;;;;;;4874785;29;20139;-80
2023/03/27 10:16:44;;;;;;;2.28;1.05;;;8.30;99.90;;;;;;4882929;29;20093;-81
2023/03/27 10:19:28;;;;;;;3.08;1.60;;;8.30;99.90;;;;;;4868362;29;20068;-81
2023/03/27 10:22:02;;;;;;;5.43;3.78;;;8.30;99.90;;;;;;4854765;29;20063;-80
2023/03/27 10:24:35;;;;;;;5.18;2.65;;;8.30;99.90;;;;;;4849659;29;20059;-80
2023/03/27 10:27:45;;;;;;;7.15;2.67;;;8.30;99.90;;;;;;4870771;29;20067;-80
2023/03/27 10:30:36;;;;;;;3.95;1.70;;;8.30;99.90;;;;;;4868674;29;20820;-80
2023/03/27 10:33:32;;;;;;;2.45;1.60;;;8.30;99.90;;;;;;4884729;29;20156;-80
2023/03/27 10:36:38;;;;;;;4.28;1.83;;;8.30;99.90;;;;;;4879270;28;20056;-80
2023/03/27 10:39:13;;;;;;;4.80;2.35;;;8.40;99.90;;;;;;4927265;28;20054;-80
2023/03/27 10:41:53;;;;;;;5.30;3.50;;;8.40;99.90;;;;;;4910782;28;20055;-81
2023/03/27 10:44:24;;;;;;;6.13;3.03;;;8.30;99.90;;;;;;4907407;28;20062;-80
2023/03/27 10:46:55;;;;;;;16.83;9.60;;;8.40;99.90;;;;;;4934990;28;20055;-80
2023/03/27 10:49:46;;;;;;;11.00;5.72;;;8.40;99.90;;;;;;4921731;28;20061;-81
2023/03/27 10:52:36;;;;;;;6.78;4.10;;;8.30;99.90;;;;;;4901058;28;20051;-81
2023/03/27 10:56:24;;;;;;;7.07;4.85;;;8.40;99.90;;;;;;4898467;28;20106;-81
2023/03/27 10:59:03;;;;;;;5.20;3.38;;;8.40;99.90;;;;;;4875021;29;20052;-81
2023/03/27 11:01:44;;;;;;;8.82;4.75;;;8.50;99.90;;;;;;4904430;28;20055;-80
2023/03/27 11:04:56;;;;;;;5.22;3.75;;;8.50;99.90;;;;;;4911884;28;20055;-80
2023/03/27 11:07:32;;;;;;;5.93;4.65;;;8.40;99.90;;;;;;4874961;29;20067;-80
2023/03/27 11:10:30;;;;;;;5.30;2.80;;;8.50;99.90;;;;;;4893682;29;20123;-81
2023/03/27 11:13:08;;;;;;;3.17;2.08;;;8.30;99.90;;;;;;4866990;29;20044;-80
2023/03/27 11:15:47;;;;;;;3.50;1.55;;;8.40;99.90;;;;;;4881356;29;20867;-80
2023/03/27 11:18:44;;;;;;;3.85;2.00;;;8.40;99.90;;;;;;4882843;29;20060;-80
2023/03/27 11:21:16;;;;;;;4.13;1.50;;;8.50;99.90;;;;;;4887944;29;20051;-80
2023/03/27 11:24:05;;;;;;;3.15;1.80;;;8.40;99.90;;;;;;4876030;29;20051;-80
2023/03/27 11:27:00;;;;;;;2.50;1.10;;;8.50;99.90;;;;;;4886876;29;20052;-80
2023/03/27 11:29:51;;;;;;;2.90;1.42;;;8.50;99.90;;;;;;4902001;29;20051;-80
2023/03/27 11:32:41;;;;;;;4.78;2.72;;;8.40;99.90;;;;;;4863560;29;20056;-81
2023/03/27 11:35:16;;;;;;;5.03;2.30;;;8.40;99.90;;;;;;4856979;29;20051;-81
2023/03/27 11:38:13;;;;;;;3.05;1.52;;;8.30;99.90;;;;;;4905498;28;20051;-81
2023/03/27 11:40:44;;;;;;;2.70;1.90;;;8.30;99.90;;;;;;4904173;28;20134;-80
2023/03/27 11:43:14;;;;;;;2.60;1.33;;;8.30;99.90;;;;;;4901719;28;20052;-80
2023/03/27 11:45:45;;;;;;;4.45;2.45;;;8.40;99.90;;;;;;4925487;28;20064;-80
2023/03/27 11:48:28;;;;;;;5.78;3.28;;;8.50;99.90;;;;;;4889371;29;20058;-80
2023/03/27 11:51:02;;;;;;;5.40;2.15;;;8.40;99.90;;;;;;4900242;28;20149;-80
2023/03/27 11:53:31;;;;;;;5.40;3.22;;;8.40;99.90;;;;;;4904174;29;20234;-81
2023/03/27 11:56:38;;;;;;;5.35;4.15;;;8.30;99.90;;;;;;4924610;28;20067;-80
2023/03/27 11:59:36;;;;;;;4.00;2.20;;;8.30;99.90;;;;;;4890155;28;20823;-80
2023/03/27 12:02:22;;;;;;;2.72;1.58;;;8.40;99.90;;;;;;4903618;28;20526;-81
2023/03/27 12:04:58;;;;;;;3.28;1.58;;;8.40;99.90;;;;;;4917667;28;20051;-80
2023/03/27 12:07:51;;;;;;;3.17;1.30;;;8.40;99.90;;;;;;4900328;28;20098;-80
2023/03/27 12:10:30;;;;;;;3.85;1.98;;;8.40;99.90;;;;;;4896407;28;20059;-80
2023/03/27 12:13:20;;;;;;;3.78;1.65;;;8.30;99.90;;;;;;4945721;28;20114;-80
2023/03/27 12:16:14;;;;;;;3.08;1.95;;;8.30;99.90;;;;;;4909296;28;20051;-80
2023/03/27 12:19:04;;;;;;;4.97;2.17;;;8.40;99.90;;;;;;4934021;28;20055;-80
2023/03/27 12:22:35;;;;;;;8.45;4.82;;;8.40;99.90;;;;;;4909554;28;20054;-81
2023/03/27 12:25:17;;;;;;;13.60;5.60;;;8.30;99.90;;;;;;4924541;28;20050;-80
2023/03/27 12:28:34;;;;;;;7.47;4.45;;;8.30;99.90;;;;;;4918849;28;20058;-81
2023/03/27 12:31:31;;;;;;;5.32;2.78;;;8.40;99.90;;;;;;4923927;28;20051;-80
2023/03/27 12:34:05;;;;;;;6.00;3.20;;;8.40;99.90;;;;;;4905528;28;20058;-81
2023/03/27 12:36:38;;;;;;;7.72;3.55;;;8.50;99.90;;;;;;4905432;28;20544;-80
2023/03/27 12:39:21;;;;;;;7.07;3.25;;;8.50;99.90;;;;;;4924133;28;20971;-81
2023/03/27 12:41:49;;;;;;;5.72;2.80;;;8.50;99.90;;;;;;4914083;28;20175;-80
2023/03/27 12:44:40;;;;;;;5.28;2.42;;;8.40;99.90;;;;;;4894213;28;20726;-80
2023/03/27 12:47:24;;;;;;;8.57;3.20;;;8.30;99.90;;;;;;4919196;28;20515;-81
2023/03/27 12:50:25;;;;;;;5.40;2.30;;;8.40;99.90;;;;;;4921886;28;20087;-81
2023/03/27 12:52:55;;;;;;;5.28;2.47;;;8.40;99.90;;;;;;4940277;28;20090;-80
2023/03/27 12:55:30;;;;;;;6.57;3.28;;;8.40;99.90;;;;;;4908012;28;22694;-81
2023/03/27 12:57:59;;;;;;;21.63;10.75;;;8.40;99.90;;;;;;4919380;28;20051;-80
2023/03/27 13:00:58;;;;;;;60.67;37.47;;;8.50;99.90;;;;;;4922773;28;20047;-80
2023/03/27 13:04:04;;;;;;;15.80;8.80;;;8.50;99.90;;;;;;4890358;28;20059;-80
2023/03/27 13:06:50;;;;;;;10.32;5.93;;;8.70;99.90;;;;;;4922374;28;20047;-80
2023/03/27 13:09:43;;;;;;;15.98;9.55;;;8.70;99.90;;;;;;4922072;28;20066;-81
2023/03/27 13:12:43;;;;;;;13.65;7.00;;;8.80;99.90;;;;;;4906470;28;20085;-78
2023/03/27 13:15:40;;;;;;;12.93;5.93;;;8.80;99.90;;;;;;4905170;28;20053;-80
2023/03/27 13:18:33;;;;;;;6.63;3.95;;;8.70;99.90;;;;;;4919876;28;20753;-79
2023/03/27 13:21:27;;;;;;;6.05;3.22;;;8.60;99.90;;;;;;4900358;28;20053;-81
2023/03/27 13:24:18;;;;;;;3.53;2.60;;;8.40;99.90;;;;;;4920186;28;20046;-78
2023/03/27 13:27:04;;;;;;;6.57;2.35;;;8.20;99.90;;;;;;4902381;28;20506;-80
2023/03/27 13:29:36;;;;;;;11.60;7.35;;;8.20;99.90;;;;;;4927791;28;20134;-81
2023/03/27 13:32:40;;;;;;;9.43;8.45;;;8.20;99.90;;;;;;4924628;28;20221;-81
2023/03/27 13:35:37;;;;;;;3.67;2.50;;;8.10;99.90;;;;;;4911821;28;20776;-79
2023/03/27 13:38:10;;;;;;;5.13;3.00;;;8.00;99.90;;;;;;4911488;28;20056;-79
2023/03/27 13:41:36;;;;;;;3.47;2.50;;;8.00;99.90;;;;;;4898030;28;20047;-79
2023/03/27 13:44:17;;;;;;;2.47;1.23;;;7.90;99.90;;;;;;4902994;28;20895;-79
2023/03/27 13:46:50;;;;;;;2.50;1.60;;;7.80;99.90;;;;;;4906634;28;22384;-80
2023/03/27 13:49:18;;;;;;;2.22;0.90;;;7.80;99.90;;;;;;4900683;28;20050;-81
2023/03/27 13:52:30;;;;;;;2.25;1.10;;;7.70;99.90;;;;;;4897919;28;20074;-78
2023/03/27 13:55:00;;;;;;;4.63;2.50;;;7.60;99.90;;;;;;4901618;28;20061;-78
2023/03/27 13:58:06;;;;;;;4.13;2.72;;;7.40;99.90;;;;;;4927778;28;20039;-79